Time;durP1;ratioP1;P1;durP2;ratioP2;P2;SDS_P1;SDS_P2;PMS_P1;PMS_P2;Temp;Humidity;BMP_temperature;BMP_pressure;BME280_temperature;BME280_humidity;BME280_pressure;Samples;Min_cycle;Max_cycle;Signal;HPM_P1;HPM_P2
2024/02/05 00:01:24;;;;;;;15.82;8.02;;;;;;;8.94;53.45;94172.81;5022239;28;20041;-80
2024/02/05 00:03:49;;;;;;;19.60;8.35;;;;;;;8.82;54.13;94167.97;5022145;28;20312;-79
2024/02/05 00:06:15;;;;;;;15.98;8.38;;;;;;;8.66;54.79;94172.00;5022647;28;20057;-79
2024/02/05 00:08:41;;;;;;;17.73;8.23;;;;;;;8.54;55.66;94170.59;5026203;28;20064;-79
2024/02/05 00:11:07;;;;;;;21.50;9.00;;;;;;;8.41;55.97;94158.06;5025871;28;20025;-80
2024/02/05 00:13:33;;;;;;;18.33;7.75;;;;;;;8.26;56.52;94158.28;5025726;28;20030;-79
2024/02/05 00:15:58;;;;;;;18.88;8.95;;;;;;;8.13;56.85;94143.91;5025384;28;20092;-80
2024/02/05 00:18:27;;;;;;;18.73;8.88;;;;;;;7.98;57.51;94129.78;5024394;28;20181;-79
2024/02/05 00:20:53;;;;;;;16.42;9.23;;;;;;;7.88;57.96;94150.41;5025308;28;20093;-79
2024/02/05 00:23:19;;;;;;;17.73;8.70;;;;;;;7.79;58.58;94147.59;5025481;28;20025;-79
2024/02/05 00:25:44;;;;;;;17.15;7.75;;;;;;;7.71;58.84;94143.72;5025359;28;20205;-79
2024/02/05 00:28:13;;;;;;;21.58;8.93;;;;;;;7.64;58.95;94140.63;5025376;28;20017;-80
2024/02/05 00:30:38;;;;;;;14.25;7.57;;;;;;;7.52;59.04;94146.38;5025398;28;20021;-79
2024/02/05 00:33:05;;;;;;;20.40;7.82;;;;;;;7.49;59.47;94151.44;5025694;28;20141;-79
2024/02/05 00:35:31;;;;;;;16.88;7.45;;;;;;;7.40;59.59;94151.31;5025600;28;20224;-79
2024/02/05 00:37:57;;;;;;;15.68;6.85;;;;;;;7.33;59.81;94137.63;5025423;28;20022;-79
2024/02/05 00:40:22;;;;;;;15.68;7.10;;;;;;;7.24;59.77;94140.09;5025424;28;20041;-79
2024/02/05 00:42:48;;;;;;;14.60;6.95;;;;;;;7.14;60.04;94132.28;5024059;28;20316;-79
2024/02/05 00:45:13;;;;;;;12.70;5.55;;;;;;;6.99;60.10;94138.56;5025176;28;20036;-79
2024/02/05 00:47:38;;;;;;;12.40;5.72;;;;;;;6.98;60.16;94135.13;5025071;28;20028;-78
2024/02/05 00:50:05;;;;;;;14.30;5.25;;;;;;;6.95;60.32;94113.69;5023867;28;20037;-80
2024/02/05 00:52:31;;;;;;;12.38;5.50;;;;;;;6.92;60.15;94107.13;5025275;28;20065;-79
2024/02/05 00:54:56;;;;;;;10.68;4.32;;;;;;;6.84;60.24;94107.75;5025104;28;20037;-79
2024/02/05 00:57:22;;;;;;;11.90;4.85;;;;;;;6.74;60.25;94108.63;5025237;28;20046;-79
2024/02/05 00:59:47;;;;;;;10.57;4.85;;;;;;;6.70;60.49;94104.19;5025020;28;20067;-79
2024/02/05 01:02:13;;;;;;;10.43;4.60;;;;;;;6.68;60.60;94090.44;5024772;28;20029;-79
2024/02/05 01:04:39;;;;;;;9.68;4.60;;;;;;;6.59;61.19;94103.50;5024880;28;20312;-80
2024/02/05 01:07:05;;;;;;;11.82;4.78;;;;;;;6.58;61.43;94099.28;5023431;28;20053;-79
2024/02/05 01:09:30;;;;;;;9.45;4.75;;;;;;;6.61;61.31;94110.13;5024647;28;20120;-79
2024/02/05 01:11:55;;;;;;;9.48;4.38;;;;;;;6.18;62.83;94123.22;5024635;28;20021;-79
2024/02/05 01:14:22;;;;;;;7.88;4.15;;;;;;;6.09;63.88;94116.19;5024453;28;20056;-79
2024/02/05 01:16:47;;;;;;;11.93;5.00;;;;;;;6.15;63.98;94091.25;5024572;28;20026;-79
2024/02/05 01:19:13;;;;;;;11.85;4.82;;;;;;;6.14;64.13;94084.38;5023506;28;20084;-79
2024/02/05 01:21:38;;;;;;;14.57;4.97;;;;;;;6.14;64.31;94100.25;5024732;28;20029;-79
2024/02/05 01:24:04;;;;;;;11.55;4.57;;;;;;;6.17;64.49;94094.41;5025073;28;20092;-79
2024/02/05 01:26:30;;;;;;;9.82;4.28;;;;;;;6.14;64.67;94077.22;5024619;28;20387;-79
2024/02/05 01:28:55;;;;;;;8.32;4.20;;;;;;;6.19;64.93;94086.97;5024187;28;20030;-79
2024/02/05 01:31:21;;;;;;;12.13;4.47;;;;;;;6.15;65.37;94047.03;5024185;28;20025;-79
2024/02/05 01:33:46;;;;;;;10.25;4.65;;;;;;;6.16;65.90;94121.94;5024014;28;20235;-79
2024/02/05 01:36:11;;;;;;;11.25;5.10;;;;;;;5.99;65.98;94080.00;5024372;28;20049;-79
2024/02/05 01:38:38;;;;;;;11.40;5.00;;;;;;;5.92;66.77;94080.31;5024198;28;20030;-79
2024/02/05 01:41:04;;;;;;;10.65;5.05;;;;;;;5.87;67.08;94074.25;5023949;28;20030;-79
2024/02/05 01:43:29;;;;;;;14.13;5.63;;;;;;;5.72;67.51;94046.88;5023738;28;20018;-79
2024/02/05 01:45:55;;;;;;;10.18;4.55;;;;;;;5.67;68.05;94041.63;5023988;28;20026;-79
2024/02/05 01:48:24;;;;;;;10.52;4.53;;;;;;;5.71;68.33;94042.66;5023966;28;20323;-79
2024/02/05 01:50:51;;;;;;;9.88;4.70;;;;;;;5.81;68.23;94052.34;5024251;28;20030;-79
2024/02/05 01:53:17;;;;;;;7.43;4.03;;;;;;;5.84;68.13;94049.13;5023518;28;20046;-79
2024/02/05 01:55:45;;;;;;;10.63;4.25;;;;;;;5.79;68.04;94002.38;5024047;28;20040;-79
2024/02/05 01:58:12;;;;;;;9.52;4.45;;;;;;;5.81;68.16;94031.19;5023745;28;20032;-79
2024/02/05 02:00:38;;;;;;;12.07;4.00;;;;;;;5.83;67.91;94024.53;5023762;28;20029;-79
2024/02/05 02:03:03;;;;;;;8.80;3.53;;;;;;;5.90;67.36;94008.34;5023566;28;20060;-79
2024/02/05 02:05:29;;;;;;;7.35;3.63;;;;;;;5.96;66.91;94023.16;5023500;28;20064;-79
2024/02/05 02:07:55;;;;;;;9.63;3.47;;;;;;;5.94;66.59;94027.91;5023612;28;20085;-79
2024/02/05 02:10:20;;;;;;;9.65;4.45;;;;;;;5.81;67.39;94018.75;5022131;28;20348;-79
2024/02/05 02:12:47;;;;;;;9.73;3.83;;;;;;;5.90;67.36;94018.13;5023472;28;20096;-79
2024/02/05 02:15:13;;;;;;;7.32;3.58;;;;;;;5.88;67.53;93996.47;5023290;28;20021;-79
2024/02/05 02:17:44;;;;;;;7.65;4.15;;;;;;;5.79;67.93;93999.72;5023384;28;20037;-79
2024/02/05 02:20:11;;;;;;;10.07;4.25;;;;;;;5.86;67.46;94003.91;5023806;28;20021;-79
2024/02/05 02:22:39;;;;;;;11.20;4.60;;;;;;;5.78;67.98;94032.53;5023287;28;20324;-77
2024/02/05 02:25:06;;;;;;;11.55;4.13;;;;;;;5.70;68.40;94012.00;5023099;28;20026;-79
2024/02/05 02:27:32;;;;;;;7.13;3.75;;;;;;;5.75;68.34;94027.78;5022344;28;20260;-79
2024/02/05 02:29:59;;;;;;;6.30;3.67;;;;;;;5.71;68.60;94002.97;5022788;28;20064;-79
2024/02/05 02:32:47;;;;;;;10.73;4.82;;;;;;;5.74;68.56;94020.94;5023563;28;20208;-79
2024/02/05 02:35:35;;;;;;;14.75;5.43;;;;;;;5.75;68.48;94014.56;5023290;28;20037;-79
2024/02/05 02:38:07;;;;;;;8.55;4.13;;;;;;;5.73;68.47;93960.38;5022196;28;20034;-79
2024/02/05 02:40:33;;;;;;;9.55;4.22;;;;;;;5.67;68.78;93996.66;5023345;28;20213;-78
2024/02/05 02:43:05;;;;;;;12.07;4.10;;;;;;;5.63;69.03;94019.44;5023049;28;20049;-79
2024/02/05 02:45:32;;;;;;;9.43;4.40;;;;;;;5.54;69.02;93974.31;5023135;28;20022;-79
2024/02/05 02:47:58;;;;;;;6.72;3.63;;;;;;;5.56;69.17;93997.84;5023110;28;20034;-79
2024/02/05 02:50:23;;;;;;;7.75;4.13;;;;;;;5.54;69.44;93973.53;5022819;28;20025;-79
2024/02/05 02:52:49;;;;;;;10.18;4.10;;;;;;;5.53;69.37;93906.63;5022772;28;20092;-79
2024/02/05 02:55:14;;;;;;;8.70;4.03;;;;;;;5.66;67.26;93931.63;5022957;28;20025;-78
2024/02/05 02:57:40;;;;;;;12.55;4.65;;;;;;;5.69;67.91;93969.94;5023196;28;20038;-79
2024/02/05 03:00:08;;;;;;;9.20;4.47;;;;;;;5.72;68.02;93933.16;5022847;28;20017;-79
2024/02/05 03:02:34;;;;;;;12.18;4.13;;;;;;;5.31;68.54;93978.47;5021701;28;20025;-79
2024/02/05 03:05:00;;;;;;;7.00;3.78;;;;;;;5.42;67.40;93942.94;5022889;28;20017;-79
2024/02/05 03:07:26;;;;;;;9.80;4.40;;;;;;;5.52;67.62;93944.72;5023145;28;20021;-79
2024/02/05 03:09:52;;;;;;;11.45;4.78;;;;;;;5.62;67.83;93960.47;5022945;28;20096;-79
2024/02/05 03:12:17;;;;;;;11.68;4.97;;;;;;;5.67;68.01;93951.72;5021461;28;20033;-79
2024/02/05 03:14:43;;;;;;;8.32;4.38;;;;;;;5.74;68.21;93993.69;5022644;28;20018;-79
2024/02/05 03:17:08;;;;;;;8.57;5.13;;;;;;;5.66;69.05;93991.66;5022688;28;20207;-80
2024/02/05 03:19:34;;;;;;;12.40;4.55;;;;;;;5.60;69.01;93951.25;5022594;28;20294;-80
2024/02/05 03:22:00;;;;;;;10.23;4.25;;;;;;;5.46;69.36;93958.25;5022583;28;20292;-79
2024/02/05 03:24:26;;;;;;;8.32;4.63;;;;;;;5.29;69.84;93962.09;5022514;28;20025;-79
2024/02/05 03:26:52;;;;;;;7.70;4.13;;;;;;;5.25;70.11;93939.13;5022506;28;20040;-79
2024/02/05 03:29:18;;;;;;;11.73;5.07;;;;;;;5.27;69.91;93929.06;5021282;28;20045;-79
2024/02/05 03:31:43;;;;;;;10.68;4.43;;;;;;;5.18;69.90;93963.25;5022544;28;20049;-79
2024/02/05 03:34:09;;;;;;;10.45;4.63;;;;;;;5.14;70.25;93909.38;5022490;28;20109;-79
2024/02/05 03:36:34;;;;;;;9.20;4.20;;;;;;;5.03;70.20;93974.72;5022561;28;20041;-79
2024/02/05 03:39:00;;;;;;;13.90;5.68;;;;;;;5.03;70.21;93933.22;5022420;28;20042;-79
2024/02/05 03:41:25;;;;;;;10.80;5.05;;;;;;;5.02;69.86;93963.34;5023220;28;20022;-79
2024/02/05 03:43:51;;;;;;;9.48;4.65;;;;;;;5.08;69.72;93952.75;5026073;28;20018;-79
2024/02/05 03:46:16;;;;;;;11.32;4.05;;;;;;;5.15;69.68;93971.69;5026056;28;20037;-79
2024/02/05 03:48:52;;;;;;;13.18;4.53;;;;;;;5.20;69.42;93969.03;5026413;28;20013;-80
2024/02/05 03:51:17;;;;;;;10.02;4.05;;;;;;;5.25;69.36;93963.72;5026057;28;20030;-79
2024/02/05 03:53:43;;;;;;;15.30;4.40;;;;;;;5.26;69.20;93973.22;5026643;28;20014;-79
2024/02/05 03:56:09;;;;;;;8.65;4.20;;;;;;;5.27;69.29;93972.16;5026105;28;20029;-79
2024/02/05 03:58:35;;;;;;;10.13;4.20;;;;;;;5.27;69.47;94016.28;5025914;28;20030;-79
2024/02/05 04:01:00;;;;;;;9.52;4.15;;;;;;;5.33;69.09;93952.56;5025921;28;20370;-79
2024/02/05 04:03:26;;;;;;;11.82;3.47;;;;;;;5.34;68.79;93980.56;5026266;28;20331;-79
2024/02/05 04:05:51;;;;;;;12.63;3.55;;;;;;;5.40;68.44;94005.88;5024835;28;20224;-79
2024/02/05 04:08:17;;;;;;;8.77;4.35;;;;;;;5.33;68.65;93973.69;5025774;28;20022;-79
2024/02/05 04:10:42;;;;;;;9.57;3.75;;;;;;;5.28;68.96;93996.72;5026266;28;20059;-79
2024/02/05 04:13:07;;;;;;;11.93;4.05;;;;;;;5.21;68.69;93978.53;5025652;28;20021;-79
2024/02/05 04:15:34;;;;;;;9.98;3.72;;;;;;;5.25;68.86;94019.22;5025619;28;20038;-79
2024/02/05 04:18:00;;;;;;;11.32;3.95;;;;;;;5.26;68.64;93954.72;5024414;28;20324;-79
2024/02/05 04:20:25;;;;;;;12.85;4.18;;;;;;;5.15;68.56;94006.06;5025815;28;20064;-79
2024/02/05 04:22:51;;;;;;;8.85;4.05;;;;;;;5.16;68.24;93999.72;5025976;28;20022;-79
2024/02/05 04:25:17;;;;;;;11.73;4.25;;;;;;;5.20;68.01;93998.09;5025634;28;20022;-79
2024/02/05 04:27:42;;;;;;;9.73;4.63;;;;;;;5.25;68.08;94027.16;5026016;28;20022;-79
2024/02/05 04:30:08;;;;;;;8.63;3.92;;;;;;;5.33;67.54;94021.28;5026089;28;20021;-79
2024/02/05 04:32:33;;;;;;;9.35;3.72;;;;;;;5.39;67.28;94022.00;5025338;28;20427;-79
2024/02/05 04:34:59;;;;;;;7.53;3.97;;;;;;;5.42;67.10;94027.53;5025296;28;20017;-79
2024/02/05 04:37:26;;;;;;;9.27;2.90;;;;;;;5.52;66.98;94023.25;5025273;28;20025;-79
2024/02/05 04:39:54;;;;;;;6.80;2.83;;;;;;;5.58;66.59;94012.34;5025011;28;20297;-79
2024/02/05 04:42:19;;;;;;;5.55;2.45;;;;;;;5.63;66.56;94036.09;5025215;28;20090;-80
2024/02/05 04:44:44;;;;;;;6.60;2.92;;;;;;;5.55;66.65;94018.19;5025353;28;20022;-79
2024/02/05 04:47:10;;;;;;;7.03;2.95;;;;;;;5.54;66.19;94048.34;5025630;28;20029;-79
2024/02/05 04:49:35;;;;;;;6.00;2.72;;;;;;;5.63;66.18;94043.25;5025178;28;20072;-79
2024/02/05 04:52:01;;;;;;;6.28;3.22;;;;;;;5.65;66.05;94053.53;5024426;28;20113;-79
2024/02/05 04:54:29;;;;;;;6.47;3.20;;;;;;;5.66;65.85;94048.00;5024648;28;20025;-79
2024/02/05 04:56:55;;;;;;;10.07;3.33;;;;;;;5.70;65.86;94051.66;5024976;28;20021;-79
2024/02/05 04:59:20;;;;;;;8.35;3.67;;;;;;;5.73;65.65;94019.34;5024925;28;20013;-80
2024/02/05 05:01:46;;;;;;;7.18;3.72;;;;;;;5.72;65.52;94033.66;5023625;28;20037;-79
2024/02/05 05:04:11;;;;;;;9.23;3.33;;;;;;;5.69;65.37;94026.25;5024763;28;20013;-80
2024/02/05 05:06:36;;;;;;;7.88;3.42;;;;;;;5.71;65.50;94026.00;5024740;28;20024;-80
2024/02/05 05:09:02;;;;;;;7.28;3.08;;;;;;;5.75;65.18;94038.38;5024750;28;20040;-80
2024/02/05 05:11:28;;;;;;;7.30;3.30;;;;;;;5.74;64.98;94047.38;5025201;28;20022;-80
2024/02/05 05:13:53;;;;;;;5.45;3.13;;;;;;;5.77;65.12;94030.94;5024784;28;20028;-80
2024/02/05 05:16:19;;;;;;;7.57;2.70;;;;;;;5.77;64.90;94038.09;5024671;28;20017;-80
2024/02/05 05:18:45;;;;;;;9.77;3.78;;;;;;;5.74;65.15;94042.09;5024803;28;20030;-80
2024/02/05 05:21:11;;;;;;;8.38;3.22;;;;;;;5.69;64.71;94050.06;5024763;28;20026;-80
2024/02/05 05:23:36;;;;;;;9.77;3.30;;;;;;;5.66;64.93;94040.06;5024351;28;20025;-80
2024/02/05 05:26:02;;;;;;;11.32;3.47;;;;;;;5.71;64.93;94049.78;5023273;28;20009;-80
2024/02/05 05:28:27;;;;;;;7.07;3.67;;;;;;;5.67;64.98;94062.00;5024653;28;20088;-80
2024/02/05 05:30:53;;;;;;;7.93;3.70;;;;;;;5.66;64.70;94055.09;5024326;28;20029;-80
2024/02/05 05:33:18;;;;;;;9.90;3.53;;;;;;;5.70;64.58;94070.16;5024312;28;20093;-80
2024/02/05 05:35:43;;;;;;;6.78;3.40;;;;;;;5.75;64.62;94061.41;5024625;28;20018;-80
2024/02/05 05:38:09;;;;;;;10.38;3.72;;;;;;;5.80;64.60;94087.78;5024576;28;20024;-80
2024/02/05 05:40:34;;;;;;;7.63;3.50;;;;;;;5.78;64.59;94080.16;5024211;28;20096;-80
2024/02/05 05:43:00;;;;;;;9.88;4.10;;;;;;;5.79;64.67;94080.94;5023987;28;20025;-79
2024/02/05 05:45:27;;;;;;;11.25;4.20;;;;;;;5.76;64.65;94094.69;5024049;28;20018;-79
2024/02/05 05:47:52;;;;;;;7.97;3.83;;;;;;;5.74;64.91;94097.66;5023978;28;20022;-80
2024/02/05 05:50:18;;;;;;;9.07;4.10;;;;;;;5.71;64.75;94114.03;5023985;28;20194;-80
2024/02/05 05:52:43;;;;;;;15.48;4.57;;;;;;;5.70;64.88;94099.25;5024355;28;20397;-80
2024/02/05 05:55:09;;;;;;;17.33;7.20;;;;;;;5.67;65.00;94086.56;5024434;28;20030;-80
2024/02/05 05:57:35;;;;;;;25.70;7.90;;;;;;;5.62;64.85;94074.19;5024107;28;20053;-80
2024/02/05 06:00:05;;;;;;;27.30;9.00;;;;;;;5.58;65.14;94086.38;5024013;28;20186;-80
2024/02/05 06:02:30;;;;;;;37.65;12.35;;;;;;;5.59;65.50;94085.31;5023043;28;20096;-80
2024/02/05 06:04:56;;;;;;;32.03;10.20;;;;;;;5.66;65.03;94087.66;5022212;28;20244;-80
2024/02/05 06:07:21;;;;;;;17.65;6.53;;;;;;;5.66;65.05;94076.25;5024099;28;20025;-80
2024/02/05 06:09:47;;;;;;;17.33;7.63;;;;;;;5.71;65.05;94082.31;5024197;28;20026;-80
2024/02/05 06:12:13;;;;;;;20.50;9.73;;;;;;;5.72;64.83;94070.69;5022936;28;20104;-80
2024/02/05 06:14:38;;;;;;;18.80;9.10;;;;;;;5.83;64.40;94066.88;5024049;28;20034;-80
2024/02/05 06:17:04;;;;;;;22.58;9.00;;;;;;;5.84;64.30;94046.50;5023449;28;20101;-80
2024/02/05 06:19:29;;;;;;;13.55;4.63;;;;;;;5.83;63.75;94077.44;5023555;28;20018;-80
2024/02/05 06:21:55;;;;;;;9.57;4.43;;;;;;;5.88;63.43;94076.59;5023681;28;20028;-80
2024/02/05 06:24:20;;;;;;;10.15;4.25;;;;;;;5.83;63.41;94077.44;5023290;28;20301;-80
2024/02/05 06:26:46;;;;;;;9.30;3.60;;;;;;;5.87;63.81;94050.47;5023239;28;20022;-79
2024/02/05 06:29:11;;;;;;;10.57;3.45;;;;;;;5.85;63.59;94116.09;5023351;28;20017;-79
2024/02/05 06:31:37;;;;;;;11.43;4.25;;;;;;;5.78;63.98;94127.75;5023199;28;20311;-79
2024/02/05 06:34:03;;;;;;;8.15;4.15;;;;;;;5.77;64.40;94101.59;5023253;28;20038;-80
2024/02/05 06:36:28;;;;;;;15.23;3.95;;;;;;;5.79;64.73;94113.47;5023135;28;20063;-80
2024/02/05 06:38:53;;;;;;;9.93;3.58;;;;;;;5.93;64.54;94120.78;5023105;28;20343;-80
2024/02/05 06:41:19;;;;;;;14.20;4.60;;;;;;;6.03;64.44;94120.72;5023166;28;20064;-80
2024/02/05 06:43:46;;;;;;;7.53;3.38;;;;;;;6.10;63.54;94118.53;5023147;28;20216;-80
2024/02/05 06:46:13;;;;;;;10.23;4.47;;;;;;;6.22;62.80;94126.09;5023433;28;20251;-80
2024/02/05 06:48:38;;;;;;;11.02;4.82;;;;;;;6.30;62.55;94106.19;5023338;28;20084;-80
2024/02/05 06:51:04;;;;;;;12.05;5.00;;;;;;;6.38;62.51;94109.00;5023251;28;20228;-80
2024/02/05 06:53:30;;;;;;;10.23;5.07;;;;;;;6.49;62.59;94093.78;5023015;28;20100;-80
2024/02/05 06:55:56;;;;;;;9.35;5.65;;;;;;;6.64;61.86;94108.75;5023308;28;20025;-80
2024/02/05 06:58:22;;;;;;;13.18;6.30;;;;;;;6.75;61.74;94104.91;5023253;28;20355;-80
2024/02/05 07:00:47;;;;;;;17.08;5.88;;;;;;;6.84;61.64;94089.19;5023024;28;20301;-79
2024/02/05 07:03:13;;;;;;;18.08;5.95;;;;;;;6.98;61.13;94074.19;5023372;28;20038;-80
2024/02/05 07:05:38;;;;;;;18.17;5.45;;;;;;;7.11;60.63;94095.75;5023012;28;20025;-81
2024/02/05 07:08:04;;;;;;;14.77;4.97;;;;;;;7.26;59.79;94092.09;5022785;28;20038;-80
2024/02/05 07:10:29;;;;;;;14.73;4.13;;;;;;;7.30;59.42;94085.94;5022935;28;20026;-80
2024/02/05 07:12:55;;;;;;;14.88;5.00;;;;;;;7.32;59.57;94106.88;5023001;28;20022;-80
2024/02/05 07:15:20;;;;;;;14.75;5.10;;;;;;;7.38;59.34;94103.84;5023570;28;20059;-80
2024/02/05 07:17:47;;;;;;;12.32;4.68;;;;;;;7.42;59.05;94104.84;5026971;28;20060;-80
2024/02/05 07:20:12;;;;;;;12.48;4.68;;;;;;;7.55;58.39;94115.81;5026821;28;20021;-79
2024/02/05 07:22:38;;;;;;;14.75;5.15;;;;;;;7.61;58.17;94114.66;5026825;28;20021;-79
2024/02/05 07:25:04;;;;;;;16.67;4.88;;;;;;;7.74;57.68;94116.63;5026933;28;20049;-80
2024/02/05 07:27:29;;;;;;;13.88;5.15;;;;;;;7.82;57.79;94107.22;5026903;28;20026;-79
2024/02/05 07:29:55;;;;;;;19.48;5.05;;;;;;;7.93;57.36;94121.09;5026926;28;20259;-79
2024/02/05 07:32:20;;;;;;;24.15;5.93;;;;;;;8.03;57.15;94107.69;5026799;28;20022;-79
2024/02/05 07:34:46;;;;;;;29.40;7.65;;;;;;;8.10;56.40;94110.75;5026400;28;20312;-79
2024/02/05 07:37:12;;;;;;;19.17;6.07;;;;;;;8.22;56.57;94126.19;5026737;28;20022;-79
2024/02/05 07:39:37;;;;;;;18.42;6.05;;;;;;;8.27;55.93;94104.09;5026282;28;20021;-79
2024/02/05 07:42:03;;;;;;;12.93;4.60;;;;;;;8.28;56.11;94103.00;5026302;28;20197;-79
2024/02/05 07:44:29;;;;;;;15.80;4.90;;;;;;;8.19;54.30;94113.53;5026636;28;20089;-80
2024/02/05 07:46:54;;;;;;;20.25;6.03;;;;;;;8.30;54.24;94111.47;5026298;28;20018;-80
2024/02/05 07:49:19;;;;;;;17.17;4.20;;;;;;;8.48;54.90;94118.63;5026280;28;20052;-79
2024/02/05 07:51:49;;;;;;;23.65;5.22;;;;;;;8.39;55.82;94104.44;5025882;28;20053;-79
2024/02/05 07:54:15;;;;;;;17.40;5.05;;;;;;;8.58;55.53;94104.38;5025928;28;20022;-79
2024/02/05 07:56:42;;;;;;;14.35;6.55;;;;;;;8.64;54.54;94114.59;5026191;28;20293;-79
2024/02/05 07:59:10;;;;;;;23.40;6.10;;;;;;;8.67;53.77;94099.16;5026047;28;20041;-80
2024/02/05 08:01:36;;;;;;;22.70;6.32;;;;;;;8.76;54.62;94116.00;5025996;28;20119;-80
2024/02/05 08:04:03;;;;;;;21.00;7.55;;;;;;;8.80;54.58;94101.03;5025988;28;20045;-79
2024/02/05 08:06:29;;;;;;;18.30;5.72;;;;;;;8.89;53.92;94091.28;5025460;28;20104;-80
2024/02/05 08:08:56;;;;;;;18.60;7.18;;;;;;;8.97;53.69;94095.13;5025619;28;20025;-80
2024/02/05 08:11:21;;;;;;;18.75;6.40;;;;;;;9.09;53.72;94082.09;5025796;28;20037;-80
2024/02/05 08:13:47;;;;;;;20.83;5.65;;;;;;;9.17;53.18;94091.25;5025796;28;20110;-79
2024/02/05 08:16:12;;;;;;;19.55;5.60;;;;;;;9.28;53.04;94084.66;5025982;28;20372;-80
2024/02/05 08:18:38;;;;;;;27.20;5.70;;;;;;;9.42;52.85;94058.00;5025684;28;20320;-80
2024/02/05 08:21:04;;;;;;;22.77;4.55;;;;;;;9.31;50.14;94081.38;5025789;28;20021;-80
2024/02/05 08:23:30;;;;;;;14.93;5.05;;;;;;;9.26;49.27;94105.44;5025695;28;20024;-80
2024/02/05 08:25:55;;;;;;;11.73;5.05;;;;;;;9.30;50.51;94100.28;5024565;28;20021;-80
2024/02/05 08:28:21;;;;;;;26.98;5.60;;;;;;;9.43;51.56;94081.66;5024632;28;20056;-80
2024/02/05 08:30:46;;;;;;;16.70;5.93;;;;;;;9.50;51.76;94099.84;5025428;28;20022;-80
2024/02/05 08:33:13;;;;;;;19.20;6.28;;;;;;;9.65;51.77;94101.41;5025827;28;20324;-80
2024/02/05 08:35:40;;;;;;;15.20;6.13;;;;;;;9.75;51.44;94079.88;5025440;28;20336;-80
2024/02/05 08:38:06;;;;;;;16.52;5.65;;;;;;;9.84;51.27;94096.69;5025576;28;20017;-80
2024/02/05 08:40:31;;;;;;;29.25;6.82;;;;;;;9.91;51.33;94084.84;5025449;28;20071;-80
2024/02/05 08:42:57;;;;;;;29.58;6.72;;;;;;;9.97;50.74;94102.25;5024074;28;20040;-79
2024/02/05 08:45:23;;;;;;;23.45;6.50;;;;;;;9.93;50.79;94090.63;5025071;28;20331;-80
2024/02/05 08:47:50;;;;;;;18.05;5.78;;;;;;;9.94;51.03;94095.66;5024927;28;20050;-80
2024/02/05 08:50:15;;;;;;;19.08;6.13;;;;;;;10.02;50.61;94097.59;5024937;28;20324;-80
2024/02/05 08:52:40;;;;;;;40.97;6.85;;;;;;;10.09;51.06;94085.75;5024602;28;20064;-80
2024/02/05 08:55:06;;;;;;;19.73;6.68;;;;;;;10.12;50.49;94088.59;5023269;28;20080;-80
2024/02/05 08:57:32;;;;;;;22.38;5.78;;;;;;;10.20;50.74;94079.88;5024876;28;20033;-80
2024/02/05 08:59:57;;;;;;;22.77;6.45;;;;;;;10.25;50.28;94087.72;5024938;28;20038;-81
2024/02/05 09:02:22;;;;;;;22.98;6.78;;;;;;;10.39;49.69;94070.91;5023705;28;20219;-80
2024/02/05 09:04:48;;;;;;;21.70;8.20;;;;;;;10.41;48.06;94104.13;5024929;28;20022;-80
2024/02/05 09:07:14;;;;;;;27.13;6.63;;;;;;;10.55;48.09;94098.72;5025354;28;20201;-80
2024/02/05 09:09:40;;;;;;;22.60;6.68;;;;;;;10.70;48.11;94086.09;5023935;28;20037;-80
2024/02/05 09:12:07;;;;;;;21.13;5.45;;;;;;;10.88;48.69;94082.38;5024812;28;20025;-80
2024/02/05 09:14:34;;;;;;;26.13;6.88;;;;;;;11.02;48.30;94061.72;5024802;28;20021;-80
2024/02/05 09:17:00;;;;;;;16.90;6.28;;;;;;;11.16;47.71;94072.25;5024919;28;20316;-81
2024/02/05 09:19:25;;;;;;;13.20;3.47;;;;;;;11.15;42.29;94075.22;5024923;28;20068;-80
2024/02/05 09:21:51;;;;;;;22.17;5.55;;;;;;;11.18;43.28;94059.41;5024307;28;20017;-80
2024/02/05 09:24:16;;;;;;;11.77;5.35;;;;;;;10.96;43.78;94072.84;5024500;28;20020;-80
2024/02/05 09:26:42;;;;;;;23.90;7.70;;;;;;;10.93;46.04;94060.91;5024853;28;20017;-80
2024/02/05 09:29:07;;;;;;;12.00;3.85;;;;;;;11.12;41.52;94076.66;5024317;28;20021;-80
2024/02/05 09:31:33;;;;;;;8.60;2.10;;;;;;;11.57;37.62;94048.91;5024476;28;20032;-80
2024/02/05 09:33:58;;;;;;;23.75;6.05;;;;;;;11.92;40.61;94070.28;5023724;28;20040;-80
2024/02/05 09:36:24;;;;;;;4.45;1.40;;;;;;;12.45;35.35;94055.72;5024060;28;20028;-81
2024/02/05 09:38:50;;;;;;;5.20;1.13;;;;;;;13.06;33.88;94042.09;5023072;28;20093;-81
2024/02/05 09:41:24;;;;;;;4.03;1.35;;;;;;;13.51;32.47;94072.84;5023697;28;20025;-81
2024/02/05 09:43:52;;;;;;;12.15;1.38;;;;;;;13.81;31.24;94020.00;5023912;28;20220;-80
2024/02/05 09:46:22;;;;;;;2.83;1.17;;;;;;;13.94;31.46;94029.66;5023637;28;20022;-80
2024/02/05 09:48:50;;;;;;;4.03;1.42;;;;;;;14.10;31.49;94024.44;5023806;28;20320;-80
2024/02/05 09:51:17;;;;;;;4.40;1.00;;;;;;;14.18;30.71;93996.75;5023616;28;20029;-80
2024/02/05 09:53:45;;;;;;;2.95;1.20;;;;;;;14.24;30.44;94046.38;5023754;28;20080;-80
2024/02/05 09:56:12;;;;;;;2.85;0.93;;;;;;;14.34;30.76;94013.00;5023776;28;20026;-80
2024/02/05 09:58:37;;;;;;;2.25;1.05;;;;;;;14.47;30.36;94021.88;5023500;28;20026;-80
2024/02/05 10:01:03;;;;;;;2.25;0.80;;;;;;;14.47;30.07;94013.81;5022396;28;20061;-80
2024/02/05 10:03:31;;;;;;;2.20;0.90;;;;;;;14.53;30.15;94028.56;5023645;28;20025;-80
2024/02/05 10:06:04;;;;;;;2.72;1.20;;;;;;;14.57;30.30;93993.84;5023481;28;20029;-80
2024/02/05 10:08:32;;;;;;;1.63;0.70;;;;;;;14.67;30.24;94014.06;5023543;28;20025;-79
2024/02/05 10:10:59;;;;;;;2.28;0.90;;;;;;;14.59;29.15;93991.59;5023215;28;20236;-80
2024/02/05 10:13:26;;;;;;;2.45;0.95;;;;;;;14.75;29.44;94008.59;5023094;28;20093;-80
2024/02/05 10:15:51;;;;;;;2.40;0.85;;;;;;;14.77;29.10;93994.84;5023479;28;20224;-80
2024/02/05 10:18:17;;;;;;;1.48;0.88;;;;;;;14.86;29.31;93990.16;5022138;28;20030;-80
2024/02/05 10:20:42;;;;;;;2.45;1.08;;;;;;;14.91;28.92;93975.72;5023590;28;20029;-79
2024/02/05 10:23:08;;;;;;;1.65;0.82;;;;;;;14.94;29.33;93986.56;5023097;28;20235;-80
2024/02/05 10:25:34;;;;;;;2.63;0.98;;;;;;;14.94;29.36;93975.84;5021862;28;20022;-79
2024/02/05 10:28:04;;;;;;;3.05;1.00;;;;;;;15.08;29.56;93998.84;5023061;28;20056;-81
2024/02/05 10:30:30;;;;;;;2.10;1.33;;;;;;;15.19;29.00;94014.16;5023075;28;20029;-81
2024/02/05 10:32:59;;;;;;;5.50;1.02;;;;;;;15.19;28.87;93986.53;5022998;28;20104;-81
2024/02/05 10:35:26;;;;;;;2.53;1.02;;;;;;;15.27;29.00;93988.31;5022769;28;20082;-80
2024/02/05 10:37:52;;;;;;;6.68;1.00;;;;;;;15.26;29.16;93965.25;5022955;28;20316;-80
2024/02/05 10:40:18;;;;;;;8.23;1.00;;;;;;;15.23;29.23;93982.06;5023134;28;20093;-80
2024/02/05 10:42:44;;;;;;;2.55;1.05;;;;;;;15.19;29.29;93960.47;5023158;28;20028;-80
2024/02/05 10:45:11;;;;;;;7.05;1.00;;;;;;;15.14;29.08;93957.22;5023131;28;20339;-80
2024/02/05 10:47:37;;;;;;;1.63;0.90;;;;;;;15.27;29.59;93953.41;5022634;28;20308;-79
2024/02/05 10:50:07;;;;;;;3.85;0.77;;;;;;;15.28;29.35;93946.13;5022708;28;20032;-80
2024/02/05 10:52:33;;;;;;;7.18;0.95;;;;;;;15.35;29.06;93963.22;5022856;28;20037;-80
2024/02/05 10:55:02;;;;;;;3.90;0.98;;;;;;;15.41;29.37;93977.97;5022715;28;20026;-80
2024/02/05 10:57:28;;;;;;;3.83;1.20;;;;;;;15.41;28.98;93988.72;5022627;28;20122;-79
2024/02/05 10:59:54;;;;;;;3.30;1.15;;;;;;;15.31;28.32;93972.31;5022588;28;20021;-80
2024/02/05 11:02:25;;;;;;;11.57;1.40;;;;;;;15.36;28.78;93954.03;5022698;28;20102;-79
2024/02/05 11:04:54;;;;;;;2.58;1.13;;;;;;;15.42;28.67;93952.69;5022610;28;20040;-79
2024/02/05 11:07:24;;;;;;;6.25;1.27;;;;;;;15.52;28.62;93964.84;5022512;28;20052;-79
2024/02/05 11:09:51;;;;;;;2.75;1.13;;;;;;;15.55;28.68;93972.22;5022459;28;20197;-80
2024/02/05 11:12:21;;;;;;;3.53;1.15;;;;;;;15.57;28.78;93955.75;5022557;28;20052;-80
2024/02/05 11:14:49;;;;;;;3.17;1.33;;;;;;;15.64;28.97;93953.28;5022583;28;20030;-80
2024/02/05 11:17:18;;;;;;;4.20;1.40;;;;;;;15.70;28.74;93968.03;5022615;28;20224;-81
2024/02/05 11:19:46;;;;;;;15.00;1.15;;;;;;;15.79;28.58;93957.16;5022661;28;20029;-81
2024/02/05 11:22:16;;;;;;;3.28;1.20;;;;;;;15.84;28.37;93949.63;5022543;28;20056;-81
2024/02/05 11:24:42;;;;;;;4.70;1.30;;;;;;;15.75;29.12;93958.97;5022620;28;20022;-80
2024/02/05 11:27:09;;;;;;;2.85;1.10;;;;;;;15.84;28.54;93946.94;5022386;28;20097;-80
2024/02/05 11:29:36;;;;;;;3.67;1.00;;;;;;;15.90;28.72;93944.03;5022488;28;20245;-80